Time;durP1;ratioP1;P1;durP2;ratioP2;P2;SDS_P1;SDS_P2;PMS_P1;PMS_P2;Temp;Humidity;BMP_temperature;BMP_pressure;BME280_temperature;BME280_humidity;BME280_pressure;Samples;Min_cycle;Max_cycle;Signal;HPM_P1;HPM_P2
2022/04/29 00:00:06;;;;;;;10.82;6.10;;;;;;;6.14;82.13;103051.78;5032867;28;20041;-66
2022/04/29 00:02:32;;;;;;;11.48;6.90;;;;;;;6.11;82.42;103045.63;5015140;28;20072;-66
2022/04/29 00:04:57;;;;;;;13.25;6.13;;;;;;;6.09;82.65;103048.28;5015600;28;20120;-66
2022/04/29 00:07:22;;;;;;;11.20;6.32;;;;;;;6.04;82.90;103043.94;5033720;28;20041;-66
2022/04/29 00:09:48;;;;;;;14.73;6.53;;;;;;;5.96;83.01;103042.19;5034267;28;20041;-66
2022/04/29 00:12:13;;;;;;;10.63;6.45;;;;;;;5.99;83.44;103043.09;5033374;28;20049;-66
2022/04/29 00:14:39;;;;;;;15.50;7.03;;;;;;;5.95;82.94;103045.75;5034276;28;20033;-66
2022/04/29 00:17:05;;;;;;;13.57;6.57;;;;;;;5.91;83.39;103043.09;5033932;28;20060;-66
2022/04/29 00:19:30;;;;;;;16.98;6.72;;;;;;;5.88;83.56;103038.72;5033369;28;20538;-66
2022/04/29 00:21:56;;;;;;;16.73;7.10;;;;;;;5.92;83.23;103043.16;5033306;28;20118;-66
2022/04/29 00:24:21;;;;;;;17.98;7.07;;;;;;;5.85;83.56;103037.88;5031457;28;20041;-66
2022/04/29 00:26:47;;;;;;;18.50;7.40;;;;;;;5.82;83.57;103032.59;5033928;28;20044;-66
2022/04/29 00:29:12;;;;;;;16.60;7.03;;;;;;;5.75;83.68;103042.34;5035818;28;20047;-65
2022/04/29 00:31:39;;;;;;;18.90;6.78;;;;;;;5.75;83.48;103037.06;5033032;28;20049;-66
2022/04/29 00:34:05;;;;;;;10.35;6.05;;;;;;;5.75;83.69;103037.06;5016947;28;20514;-66
2022/04/29 00:36:30;;;;;;;11.95;6.43;;;;;;;5.76;83.71;103025.56;5017389;28;20042;-66
2022/04/29 00:38:55;;;;;;;23.15;7.90;;;;;;;5.73;83.86;103025.63;5025449;28;20111;-66
2022/04/29 00:41:23;;;;;;;13.60;7.15;;;;;;;5.66;84.21;103029.19;5035223;28;20045;-66
2022/04/29 00:43:58;;;;;;;16.70;7.47;;;;;;;5.70;83.93;103025.63;5035534;28;20033;-66
2022/04/29 00:46:24;;;;;;;12.93;7.72;;;;;;;5.62;84.27;103016.88;5037251;28;20033;-66
2022/04/29 00:48:49;;;;;;;17.42;7.68;;;;;;;5.56;84.18;103020.44;5037403;28;20407;-66
2022/04/29 00:51:15;;;;;;;12.70;7.20;;;;;;;5.58;84.92;103016.03;5032417;28;20033;-66
2022/04/29 00:53:40;;;;;;;16.77;8.88;;;;;;;5.55;84.81;103012.53;5018242;28;20045;-66
2022/04/29 00:56:07;;;;;;;16.55;6.55;;;;;;;5.52;84.81;103015.19;5017434;28;21001;-66
2022/04/29 00:58:42;;;;;;;16.98;7.60;;;;;;;5.48;84.68;103010.81;5017655;28;20037;-66
2022/04/29 01:01:08;;;;;;;15.45;7.57;;;;;;;5.44;84.90;103012.59;5015339;28;20049;-66
2022/04/29 01:03:36;;;;;;;16.45;8.02;;;;;;;5.38;85.58;103016.16;5016836;28;20145;-66
2022/04/29 01:06:02;;;;;;;15.30;6.90;;;;;;;5.36;85.37;103014.41;4998052;28;20876;-66
2022/04/29 01:08:27;;;;;;;23.02;8.02;;;;;;;5.35;85.68;103016.19;5016217;28;20044;-65
2022/04/29 01:10:52;;;;;;;17.25;8.43;;;;;;;5.38;85.45;103020.59;5017408;28;20049;-66
2022/04/29 01:13:18;;;;;;;17.52;6.95;;;;;;;5.33;85.52;103011.81;4998558;28;20045;-66
2022/04/29 01:15:45;;;;;;;22.85;8.90;;;;;;;5.26;85.40;103012.72;5015035;28;20733;-66
2022/04/29 01:18:13;;;;;;;15.85;7.57;;;;;;;5.27;85.83;103006.53;4998061;28;20045;-66
2022/04/29 01:20:39;;;;;;;20.27;7.50;;;;;;;5.23;85.56;103003.03;5016258;28;20046;-65
2022/04/29 01:23:06;;;;;;;10.57;6.60;;;;;;;5.20;85.75;103001.28;5035511;28;20037;-65
2022/04/29 01:25:32;;;;;;;20.33;8.52;;;;;;;5.12;85.75;102997.81;5035310;28;21062;-66
2022/04/29 01:27:57;;;;;;;18.13;7.95;;;;;;;5.13;86.27;102993.41;5035099;28;20136;-66
2022/04/29 01:30:24;;;;;;;13.73;7.75;;;;;;;5.12;86.33;102994.28;5019618;28;20159;-66
2022/04/29 01:32:50;;;;;;;19.15;8.23;;;;;;;5.14;86.10;102997.81;5018762;28;20394;-66
2022/04/29 01:35:16;;;;;;;17.55;9.07;;;;;;;5.18;85.68;102991.63;5035439;28;20113;-66
2022/04/29 01:37:42;;;;;;;21.10;8.90;;;;;;;5.08;86.05;102997.84;5017509;28;20786;-66
2022/04/29 01:40:11;;;;;;;20.35;8.00;;;;;;;5.13;86.26;102994.28;5031452;28;20053;-66
2022/04/29 01:42:37;;;;;;;25.63;9.15;;;;;;;5.09;86.06;102994.31;5038280;28;20171;-66
2022/04/29 01:45:04;;;;;;;15.35;8.23;;;;;;;5.05;86.31;102989.94;5036419;28;20033;-65
2022/04/29 01:47:36;;;;;;;25.90;9.65;;;;;;;5.05;86.45;102984.63;5035185;28;20149;-66
2022/04/29 01:50:27;;;;;;;15.40;8.07;;;;;;;5.02;86.45;102977.63;5036350;28;20064;-66
2022/04/29 01:52:53;;;;;;;21.17;8.52;;;;;;;5.02;86.55;102968.78;5034198;28;20450;-66
2022/04/29 01:55:18;;;;;;;21.17;9.27;;;;;;;5.01;86.56;102977.59;5033481;28;20041;-66
2022/04/29 01:57:48;;;;;;;17.63;9.05;;;;;;;4.95;86.99;102975.88;5035360;28;20073;-66
2022/04/29 02:00:14;;;;;;;20.35;9.00;;;;;;;4.92;86.98;102975.91;5033757;28;20033;-66
2022/04/29 02:02:47;;;;;;;29.33;8.15;;;;;;;4.97;87.13;102974.13;5032998;28;20151;-66
2022/04/29 02:05:14;;;;;;;19.63;9.75;;;;;;;4.91;86.78;102975.00;5033806;28;20095;-66
2022/04/29 02:07:40;;;;;;;19.55;9.35;;;;;;;4.87;87.05;102978.59;5036074;28;20044;-66
2022/04/29 02:10:06;;;;;;;22.42;9.50;;;;;;;4.80;87.39;102981.25;5016387;28;20479;-68
2022/04/29 02:12:35;;;;;;;20.83;8.88;;;;;;;4.84;87.46;102983.00;5033794;28;20231;-66
2022/04/29 02:15:27;;;;;;;18.85;8.68;;;;;;;4.76;87.75;102974.22;5021175;28;20064;-68
2022/04/29 02:17:57;;;;;;;24.38;9.18;;;;;;;4.77;87.43;102975.97;5035154;28;20048;-66
2022/04/29 02:20:25;;;;;;;19.38;8.68;;;;;;;4.81;87.12;102973.31;5034430;28;20037;-67
2022/04/29 02:22:52;;;;;;;21.50;8.73;;;;;;;4.82;87.37;102968.88;5035730;28;20041;-67
2022/04/29 02:25:18;;;;;;;19.27;9.80;;;;;;;4.75;87.69;102959.25;5017796;28;20071;-67
2022/04/29 02:27:43;;;;;;;21.02;9.27;;;;;;;4.80;87.81;102970.66;5018044;28;20055;-68
2022/04/29 02:30:09;;;;;;;23.83;8.52;;;;;;;4.75;87.41;102964.53;5035521;28;20044;-67
2022/04/29 02:32:35;;;;;;;25.55;10.57;;;;;;;4.68;87.77;102976.91;5001092;28;20041;-67
2022/04/29 02:35:04;;;;;;;22.08;8.80;;;;;;;4.58;87.77;102978.72;5034113;28;20110;-66
2022/04/29 02:37:31;;;;;;;19.38;9.40;;;;;;;4.68;87.42;102976.91;5035971;28;20039;-65
2022/04/29 02:39:57;;;;;;;19.50;9.82;;;;;;;4.82;87.40;102972.44;5030005;28;20034;-65
2022/04/29 02:42:22;;;;;;;19.77;9.65;;;;;;;4.68;87.75;102961.06;5034145;28;20044;-67
2022/04/29 02:44:48;;;;;;;19.88;10.52;;;;;;;4.68;88.31;102958.41;5033992;28;20041;-66
2022/04/29 02:47:15;;;;;;;22.65;9.63;;;;;;;4.73;88.03;102953.97;5032650;28;20056;-65
2022/04/29 02:49:43;;;;;;;20.52;9.10;;;;;;;4.71;87.80;102961.00;5025667;28;20783;-67
2022/04/29 02:52:10;;;;;;;20.70;9.40;;;;;;;4.75;87.81;102970.69;5033926;28;20146;-67
2022/04/29 02:54:37;;;;;;;22.40;9.85;;;;;;;4.80;87.52;102968.91;5015850;28;20084;-67
2022/04/29 02:57:05;;;;;;;20.88;9.68;;;;;;;4.72;87.74;102964.53;5016127;28;20025;-68
2022/04/29 02:59:35;;;;;;;25.05;9.65;;;;;;;4.70;87.87;102966.31;5034850;28;20044;-67
2022/04/29 03:02:00;;;;;;;20.35;9.55;;;;;;;4.74;87.75;102966.31;5017001;28;20045;-67
2022/04/29 03:04:26;;;;;;;22.45;9.93;;;;;;;4.64;88.00;102967.22;5016520;28;20037;-66
2022/04/29 03:06:52;;;;;;;21.98;9.60;;;;;;;4.73;88.03;102963.69;5000873;28;21104;-68
2022/04/29 03:09:17;;;;;;;28.95;10.25;;;;;;;4.70;88.15;102946.06;5034867;28;20045;-68
2022/04/29 03:11:43;;;;;;;24.42;10.50;;;;;;;4.71;88.10;102955.72;5017306;28;20122;-67
2022/04/29 03:14:08;;;;;;;28.27;10.55;;;;;;;4.70;88.30;102955.75;5015912;28;20040;-67
2022/04/29 03:16:34;;;;;;;19.55;9.13;;;;;;;4.66;88.25;102953.09;5016701;28;20045;-68
2022/04/29 03:19:00;;;;;;;26.98;9.90;;;;;;;4.68;88.33;102943.44;5035359;28;20037;-67
2022/04/29 03:21:26;;;;;;;25.17;9.73;;;;;;;4.63;88.71;102950.50;5016552;28;20187;-68
2022/04/29 03:23:52;;;;;;;17.85;9.50;;;;;;;4.67;88.38;102949.59;5032659;28;20111;-67
2022/04/29 03:26:17;;;;;;;24.45;8.88;;;;;;;4.71;88.25;102949.56;5015604;28;20086;-68
2022/04/29 03:28:43;;;;;;;22.08;10.25;;;;;;;4.62;88.54;102948.75;5015844;28;20021;-67
2022/04/29 03:31:08;;;;;;;23.35;10.38;;;;;;;4.70;88.17;102950.47;5014345;28;20037;-68
2022/04/29 03:33:52;;;;;;;27.48;10.15;;;;;;;4.68;88.42;102940.78;5033155;28;20082;-67
2022/04/29 03:36:18;;;;;;;22.58;10.05;;;;;;;4.59;88.81;102926.75;5033559;28;20045;-67
2022/04/29 03:38:51;;;;;;;21.88;10.30;;;;;;;4.57;89.03;102926.75;5034583;28;20033;-66
2022/04/29 03:41:17;;;;;;;27.90;10.80;;;;;;;4.51;89.15;102934.69;5024230;28;20036;-67
2022/04/29 03:43:42;;;;;;;26.42;11.15;;;;;;;4.62;88.92;102943.47;5033118;28;20126;-67
2022/04/29 03:46:14;;;;;;;26.20;9.52;;;;;;;4.55;88.87;102933.78;5014101;28;20049;-67
2022/04/29 03:51:48;;;;;;;28.13;11.05;;;;;;;4.62;88.73;102927.63;5034093;28;20043;-67
2022/04/29 03:54:13;;;;;;;25.38;11.35;;;;;;;4.54;89.16;102931.16;5016539;28;20044;-66
2022/04/29 03:56:44;;;;;;;23.48;9.23;;;;;;;4.47;89.09;102935.59;5017049;28;20112;-66
2022/04/29 03:59:09;;;;;;;25.83;10.35;;;;;;;4.54;89.24;102931.16;5014975;28;20044;-65
2022/04/29 04:01:36;;;;;;;21.98;9.52;;;;;;;4.49;89.30;102930.31;4998606;28;20037;-66
2022/04/29 04:04:05;;;;;;;28.27;10.25;;;;;;;4.51;89.22;102936.44;5032306;28;20144;-66
2022/04/29 04:09:21;;;;;;;23.95;10.45;;;;;;;4.48;89.40;102937.38;5032577;28;20048;-65
2022/04/29 04:11:48;;;;;;;22.60;10.45;;;;;;;4.54;89.30;102926.75;5016030;28;20033;-66
2022/04/29 04:14:23;;;;;;;31.65;11.43;;;;;;;4.45;89.82;102926.78;5014856;28;20029;-66
2022/04/29 04:16:49;;;;;;;22.20;10.95;;;;;;;4.47;89.85;102911.84;5000071;28;20935;-66
2022/04/29 04:19:16;;;;;;;31.13;10.20;;;;;;;4.50;89.89;102903.00;5015959;28;20041;-65
2022/04/29 04:21:42;;;;;;;24.83;10.13;;;;;;;4.48;89.77;102902.16;5016772;28;20059;-66
2022/04/29 04:24:08;;;;;;;24.10;9.52;;;;;;;4.47;89.61;102897.72;5016061;28;20819;-66
2022/04/29 04:26:34;;;;;;;22.48;10.30;;;;;;;4.52;89.93;102894.19;5014938;28;20102;-66
2022/04/29 04:29:03;;;;;;;21.55;9.98;;;;;;;4.50;89.67;102903.00;5014727;28;20036;-66
2022/04/29 04:31:37;;;;;;;28.15;10.75;;;;;;;4.48;89.83;102910.94;5014192;28;20116;-66
2022/04/29 04:34:49;;;;;;;26.20;10.20;;;;;;;4.52;89.75;102912.69;5031606;28;20037;-66
2022/04/29 04:36:53;;;;;;;22.75;9.98;;;;;;;4.51;89.28;102907.41;5015812;28;20053;-66
2022/04/29 04:39:21;;;;;;;25.55;10.90;;;;;;;4.59;89.55;102916.16;5014426;28;20032;-66
2022/04/29 04:41:48;;;;;;;32.28;11.18;;;;;;;4.62;89.80;102916.16;5016262;28;20066;-66
2022/04/29 04:44:15;;;;;;;19.73;10.02;;;;;;;4.64;89.77;102912.63;5018938;28;20122;-66
2022/04/29 04:46:40;;;;;;;20.80;10.48;;;;;;;4.71;89.50;102910.81;5014795;28;20037;-66
2022/04/29 04:49:22;;;;;;;21.80;10.20;;;;;;;4.75;89.37;102917.84;4982378;28;20049;-66
2022/04/29 04:52:06;;;;;;;21.17;9.63;;;;;;;4.83;89.35;102912.53;5013224;28;20471;-65
2022/04/29 04:54:31;;;;;;;30.73;11.45;;;;;;;4.86;88.88;102917.78;5000084;28;20051;-65
2022/04/29 04:56:57;;;;;;;30.10;11.13;;;;;;;4.92;88.73;102918.63;5015295;28;20057;-65
2022/04/29 04:59:22;;;;;;;27.05;10.57;;;;;;;4.91;88.56;102910.69;5015003;28;20037;-66
2022/04/29 05:01:48;;;;;;;21.77;10.20;;;;;;;4.96;88.29;102910.66;4997121;28;20114;-65
2022/04/29 05:04:36;;;;;;;22.63;10.00;;;;;;;4.99;88.56;102906.25;4950295;28;20106;-66
2022/04/29 05:07:31;;;;;;;25.40;10.40;;;;;;;5.03;88.46;102899.16;4946368;28;20098;-66
2022/04/29 05:09:56;;;;;;;33.38;10.77;;;;;;;5.06;88.13;102902.66;4935176;28;20526;-66
2022/04/29 05:12:23;;;;;;;27.33;11.23;;;;;;;5.08;87.98;102900.88;4951908;28;20043;-65
2022/04/29 05:14:57;;;;;;;22.13;9.98;;;;;;;5.11;88.17;102903.50;4951926;28;20047;-65
2022/04/29 05:17:23;;;;;;;26.20;9.75;;;;;;;5.22;87.91;102910.47;4939782;28;20093;-66
2022/04/29 05:20:12;;;;;;;22.80;10.00;;;;;;;5.31;87.82;102916.56;4954666;28;20997;-65
2022/04/29 05:22:40;;;;;;;33.45;11.40;;;;;;;5.31;87.36;102927.16;4941510;28;20043;-65
2022/04/29 05:25:08;;;;;;;21.50;10.25;;;;;;;5.36;87.68;102916.53;4954262;28;20050;-65
2022/04/29 05:27:39;;;;;;;25.67;10.50;;;;;;;5.39;87.60;102922.69;4954767;28;20739;-66
2022/04/29 05:30:30;;;;;;;31.42;9.52;;;;;;;5.37;87.32;102923.56;4915843;29;20058;-65
2022/04/29 05:33:31;;;;;;;24.20;10.32;;;;;;;5.48;86.80;102927.03;4906764;29;20062;-66
2022/04/29 05:36:15;;;;;;;23.70;9.57;;;;;;;5.37;87.45;102924.47;4911024;29;20162;-65
2022/04/29 05:44:28;;;;;;;21.25;9.70;;;;;;;5.53;86.94;102929.63;4937256;28;20209;-66
2022/04/29 05:46:53;;;;;;;30.77;10.07;;;;;;;5.48;87.73;102934.97;4946500;28;20039;-66
2022/04/29 05:49:21;;;;;;;23.55;9.90;;;;;;;5.55;87.69;102928.72;4936789;28;20631;-65
2022/04/29 05:51:47;;;;;;;33.75;10.63;;;;;;;5.61;87.15;102930.44;4954177;28;21014;-65
2022/04/29 05:54:13;;;;;;;23.60;9.93;;;;;;;5.58;86.34;102930.47;4937110;28;20165;-66
2022/04/29 05:56:39;;;;;;;23.33;9.15;;;;;;;5.66;87.26;102933.91;4938042;28;20618;-66
2022/04/29 05:59:09;;;;;;;32.17;10.15;;;;;;;5.67;86.85;102935.66;4922713;28;20051;-66
2022/04/29 06:01:53;;;;;;;23.15;10.55;;;;;;;5.74;87.24;102933.84;4948690;28;20049;-66
2022/04/29 06:04:21;;;;;;;22.08;8.80;;;;;;;5.63;87.25;102928.66;4938212;28;20050;-66
2022/04/29 06:06:47;;;;;;;20.13;10.10;;;;;;;5.64;86.81;102939.22;4949706;28;20056;-66
2022/04/29 06:09:13;;;;;;;29.92;8.88;;;;;;;5.69;86.64;102934.75;4996632;28;20707;-65
2022/04/29 06:11:38;;;;;;;25.30;10.40;;;;;;;5.90;86.58;102935.44;4983100;28;20041;-66
2022/04/29 06:14:06;;;;;;;24.35;10.55;;;;;;;5.94;86.55;102934.56;4996560;28;20102;-65
2022/04/29 06:16:57;;;;;;;20.63;9.52;;;;;;;5.97;86.33;102931.84;4995364;28;20049;-65
2022/04/29 06:19:41;;;;;;;30.13;10.52;;;;;;;6.00;85.99;102931.84;5016873;28;20088;-66
2022/04/29 06:22:44;;;;;;;24.70;9.90;;;;;;;6.11;86.35;102931.72;4953556;28;20053;-66
2022/04/29 06:25:09;;;;;;;23.52;9.80;;;;;;;6.27;84.87;102928.00;4954112;28;20081;-66
2022/04/29 06:27:35;;;;;;;28.20;11.43;;;;;;;6.26;84.83;102922.72;4935905;28;20038;-66
2022/04/29 06:30:00;;;;;;;25.55;10.18;;;;;;;6.23;84.90;102931.59;4932525;28;20707;-66
2022/04/29 06:32:41;;;;;;;21.98;10.85;;;;;;;6.32;85.51;102927.94;4936744;28;20039;-65
2022/04/29 06:35:21;;;;;;;20.45;9.10;;;;;;;6.45;84.26;102926.91;4936683;28;20034;-66
2022/04/29 06:37:48;;;;;;;24.00;9.43;;;;;;;6.49;84.64;102926.84;4937634;28;20138;-66
2022/04/29 06:40:50;;;;;;;20.35;8.55;;;;;;;6.79;83.05;102939.72;4895547;29;20058;-66
2022/04/29 06:43:19;;;;;;;24.48;9.93;;;;;;;6.72;83.50;102933.59;4878658;29;20506;-66
2022/04/29 06:46:17;;;;;;;20.02;9.18;;;;;;;6.90;83.59;102933.34;4879226;29;20083;-66
2022/04/29 06:48:49;;;;;;;25.02;10.38;;;;;;;6.90;83.60;102940.44;4879748;29;20271;-66
2022/04/29 06:51:40;;;;;;;24.92;9.77;;;;;;;7.22;83.04;102938.16;4858049;29;20051;-66
2022/04/29 06:54:16;;;;;;;23.33;9.80;;;;;;;7.07;82.00;102943.72;4873994;29;20072;-66
2022/04/29 06:56:43;;;;;;;25.48;9.80;;;;;;;7.36;81.99;102942.41;4890670;29;20055;-66
2022/04/29 06:59:09;;;;;;;32.92;11.30;;;;;;;7.39;82.29;102937.91;4910486;29;20044;-66
2022/04/29 07:01:38;;;;;;;21.48;9.25;;;;;;;7.54;81.03;102944.75;4910364;29;20580;-66
2022/04/29 07:04:05;;;;;;;19.00;9.07;;;;;;;7.67;80.29;102942.75;4910594;29;20044;-66
2022/04/29 07:06:31;;;;;;;18.83;8.85;;;;;;;7.88;80.50;102937.06;4911260;29;20215;-66
2022/04/29 07:08:57;;;;;;;22.58;9.70;;;;;;;8.07;79.17;102942.91;4911141;29;20867;-66
2022/04/29 07:11:42;;;;;;;15.40;8.40;;;;;;;7.66;80.84;102943.66;4894811;29;20059;-66
2022/04/29 07:14:16;;;;;;;17.98;9.25;;;;;;;7.85;80.06;102930.94;4920740;28;20109;-66
2022/04/29 07:17:02;;;;;;;20.67;9.40;;;;;;;8.27;79.63;102947.81;4950061;28;20625;-66
2022/04/29 07:19:37;;;;;;;15.45;8.18;;;;;;;8.19;78.35;102944.47;4935401;28;20347;-66
2022/04/29 07:22:04;;;;;;;18.55;8.60;;;;;;;8.19;78.01;102947.13;5005734;28;20045;-66
2022/04/29 07:24:30;;;;;;;16.05;8.27;;;;;;;8.42;77.60;102946.69;5031125;28;20036;-66
2022/04/29 07:26:57;;;;;;;21.65;8.95;;;;;;;8.63;77.65;102946.22;5013225;28;20025;-66
2022/04/29 07:29:23;;;;;;;22.67;8.35;;;;;;;8.86;77.59;102940.41;5014825;28;20128;-66
2022/04/29 07:31:52;;;;;;;21.90;8.35;;;;;;;8.41;76.73;102942.28;5008685;28;20724;-66
2022/04/29 07:43:10;;;;;;;17.63;8.10;;;;;;;8.67;76.12;102933.75;4997097;28;20045;-66
2022/04/29 07:45:38;;;;;;;18.80;8.00;;;;;;;8.78;75.62;102929.94;5012206;28;20033;-66
2022/04/29 07:48:22;;;;;;;19.40;8.40;;;;;;;9.07;75.28;102941.69;5013487;28;20799;-66
2022/04/29 07:50:48;;;;;;;17.35;8.57;;;;;;;9.44;74.05;102938.13;5015188;28;20025;-66
2022/04/29 07:53:14;;;;;;;15.25;7.43;;;;;;;9.59;74.18;102937.78;5013478;28;20077;-65
2022/04/29 07:55:40;;;;;;;25.17;7.97;;;;;;;9.95;73.14;102948.38;5015270;28;20033;-66
2022/04/29 07:58:05;;;;;;;17.90;7.72;;;;;;;9.48;74.39;102947.81;4998079;28;20967;-66
2022/04/29 08:00:31;;;;;;;15.50;7.85;;;;;;;9.69;73.09;102951.72;4999085;28;20395;-66
2022/04/29 08:03:01;;;;;;;17.90;7.95;;;;;;;9.93;72.30;102943.06;5015199;28;20032;-68
2022/04/29 08:05:45;;;;;;;14.35;7.80;;;;;;;9.95;72.40;102949.25;5018557;28;20103;-67
2022/04/29 08:08:11;;;;;;;16.75;7.97;;;;;;;9.63;73.71;102946.56;5014300;28;20037;-67
2022/04/29 08:10:36;;;;;;;19.63;8.57;;;;;;;10.36;73.15;102942.81;5014754;28;20033;-67
2022/04/29 08:13:05;;;;;;;19.88;9.15;;;;;;;10.20;72.55;102945.94;5032242;28;20037;-66
2022/04/29 08:15:49;;;;;;;15.18;7.15;;;;;;;10.33;71.86;102942.88;5016629;28;20068;-67
2022/04/29 08:18:33;;;;;;;17.83;7.65;;;;;;;10.63;69.56;102948.25;5017785;28;20123;-67
2022/04/29 08:20:59;;;;;;;14.95;7.75;;;;;;;10.24;71.66;102948.50;5032564;28;20879;-67
2022/04/29 08:23:24;;;;;;;20.98;8.75;;;;;;;10.13;71.42;102950.53;5030597;28;20889;-67
2022/04/29 08:25:50;;;;;;;16.67;7.97;;;;;;;9.99;71.63;102952.69;5031245;28;20474;-67
2022/04/29 08:28:15;;;;;;;17.02;7.60;;;;;;;10.55;70.31;102947.63;5029765;28;20282;-66
2022/04/29 08:30:41;;;;;;;22.00;8.60;;;;;;;10.94;70.02;102948.19;5013796;28;20037;-67
2022/04/29 08:33:14;;;;;;;11.90;6.38;;;;;;;11.28;68.56;102948.00;5013342;28;20052;-67
2022/04/29 08:35:44;;;;;;;15.18;7.47;;;;;;;11.37;66.46;102942.34;5013233;28;20064;-67
2022/04/29 08:38:10;;;;;;;16.67;7.43;;;;;;;11.20;71.30;102959.88;5032030;28;20048;-67
2022/04/29 08:41:00;;;;;;;13.98;7.05;;;;;;;11.64;69.54;102951.22;5014793;28;20191;-67
2022/04/29 08:43:32;;;;;;;16.63;7.20;;;;;;;11.27;68.58;102948.91;5013765;28;20041;-67
2022/04/29 08:46:01;;;;;;;15.30;7.82;;;;;;;11.86;69.69;102940.72;5013883;28;20053;-67
2022/04/29 08:48:48;;;;;;;14.32;6.90;;;;;;;11.49;67.21;102951.75;5032323;28;20858;-67
2022/04/29 08:51:14;;;;;;;14.00;7.20;;;;;;;11.73;66.35;102949.19;5035662;28;20044;-67
2022/04/29 08:53:40;;;;;;;13.82;6.85;;;;;;;11.56;68.08;102942.63;5017858;28;20049;-68
2022/04/29 08:58:49;;;;;;;17.58;7.60;;;;;;;11.69;68.76;102940.38;5036777;28;20919;-67
2022/04/29 09:01:20;;;;;;;13.93;5.82;;;;;;;11.10;69.18;102941.47;5017259;28;20037;-67
2022/04/29 09:03:46;;;;;;;36.95;8.57;;;;;;;11.93;67.66;102930.69;5036676;28;20111;-67
2022/04/29 09:06:14;;;;;;;16.67;7.40;;;;;;;12.53;66.84;102934.69;5017002;28;20081;-67
2022/04/29 09:08:42;;;;;;;12.77;6.47;;;;;;;12.06;68.13;102928.44;5017261;28;20033;-67
2022/04/29 09:11:10;;;;;;;15.45;6.80;;;;;;;11.90;65.76;102931.69;5016686;28;20045;-67
2022/04/29 09:13:40;;;;;;;24.30;8.02;;;;;;;11.88;66.40;102928.16;5031488;28;20041;-67
2022/04/29 09:16:15;;;;;;;14.93;7.28;;;;;;;11.98;69.39;102930.50;5034493;28;20051;-67
2022/04/29 09:18:48;;;;;;;16.45;7.15;;;;;;;11.86;65.99;102931.84;5014124;28;20064;-67
2022/04/29 09:21:15;;;;;;;13.73;6.35;;;;;;;11.18;67.26;102935.00;5016559;28;20055;-67
2022/04/29 09:23:43;;;;;;;18.55;7.22;;;;;;;11.97;66.75;102936.78;5036041;28;20311;-67
2022/04/29 09:26:35;;;;;;;15.88;7.45;;;;;;;11.80;65.56;102935.56;5034575;28;20056;-67
2022/04/29 09:29:21;;;;;;;15.10;7.25;;;;;;;12.60;63.04;102941.59;5023242;28;20052;-67
2022/04/29 09:31:58;;;;;;;17.33;7.50;;;;;;;12.38;65.91;102937.97;5017634;28;20135;-66
2022/04/29 09:34:58;;;;;;;12.98;7.22;;;;;;;11.71;66.67;102941.22;5036114;28;20083;-67
2022/04/29 09:37:28;;;;;;;19.45;7.50;;;;;;;11.68;65.93;102935.97;5034998;28;20605;-67
2022/04/29 09:39:56;;;;;;;21.30;6.88;;;;;;;12.09;64.88;102942.56;5035814;28;20186;-67
2022/04/29 09:42:21;;;;;;;15.00;7.07;;;;;;;11.93;65.17;102944.03;5018522;28;20053;-67
2022/04/29 09:44:47;;;;;;;19.67;8.15;;;;;;;12.31;64.58;102937.31;5036399;28;20191;-67
2022/04/29 09:47:14;;;;;;;19.17;8.20;;;;;;;12.25;64.69;102937.56;5035476;28;20595;-67
2022/04/29 09:49:41;;;;;;;10.18;7.20;;;;;;;12.62;66.67;102931.69;5014162;28;20041;-66
2022/04/29 09:52:07;;;;;;;15.63;7.78;;;;;;;12.36;65.36;102929.13;5034814;28;20127;-67
2022/04/29 09:54:39;;;;;;;18.48;8.73;;;;;;;12.57;64.11;102941.69;5034850;28;20052;-67
2022/04/29 09:57:15;;;;;;;15.90;8.32;;;;;;;13.19;63.56;102926.75;5034567;28;20140;-66
2022/04/29 09:59:49;;;;;;;14.27;7.93;;;;;;;13.66;65.73;102929.28;5016182;28;20041;-67
2022/04/29 10:02:26;;;;;;;19.15;9.35;;;;;;;13.43;62.95;102928.44;5032810;28;20123;-67
2022/04/29 10:04:56;;;;;;;23.15;9.82;;;;;;;13.09;64.60;102918.22;5016146;28;20037;-66
2022/04/29 10:07:23;;;;;;;17.02;8.48;;;;;;;12.86;64.16;102912.94;5017252;28;20110;-67
2022/04/29 10:10:04;;;;;;;13.27;8.32;;;;;;;13.48;62.18;102906.81;5016841;28;20039;-67
2022/04/29 10:12:31;;;;;;;17.42;8.32;;;;;;;13.62;63.79;102908.91;5018167;28;20048;-66
2022/04/29 10:15:26;;;;;;;19.23;8.02;;;;;;;13.32;62.83;102911.09;5021147;28;20115;-67
2022/04/29 10:21:18;;;;;;;16.17;9.00;;;;;;;13.56;63.11;102901.13;5033663;28;20115;-67
2022/04/29 10:23:49;;;;;;;15.18;8.05;;;;;;;13.29;63.29;102904.03;5032545;28;20819;-68
2022/04/29 10:26:22;;;;;;;18.02;8.73;;;;;;;13.61;62.78;102897.31;5033137;28;20033;-68
2022/04/29 10:28:49;;;;;;;10.57;7.15;;;;;;;13.06;62.78;102909.44;5031711;28;20075;-67
2022/04/29 10:31:20;;;;;;;14.40;7.60;;;;;;;12.76;62.69;102914.22;5034171;28;20545;-67
2022/04/29 10:33:46;;;;;;;11.25;7.57;;;;;;;12.99;63.18;102919.50;5016616;28;20091;-67
2022/04/29 10:36:14;;;;;;;15.27;8.10;;;;;;;13.93;60.59;102905.75;5000197;28;20044;-67
2022/04/29 10:38:44;;;;;;;19.55;8.20;;;;;;;13.90;62.74;102901.38;5035236;28;20583;-67
2022/04/29 10:41:20;;;;;;;17.40;7.85;;;;;;;14.10;60.16;102899.63;5034013;28;20037;-67
2022/04/29 10:43:55;;;;;;;22.08;7.70;;;;;;;13.99;60.45;102889.38;5034634;28;20041;-68
2022/04/29 10:46:30;;;;;;;14.38;8.20;;;;;;;14.48;59.65;102895.22;5033966;28;20146;-68
2022/04/29 10:49:25;;;;;;;14.77;7.35;;;;;;;14.08;62.37;102893.47;5015139;28;20036;-68
2022/04/29 10:52:24;;;;;;;15.90;8.00;;;;;;;13.57;60.57;102897.50;5032476;28;20769;-68
2022/04/29 10:55:00;;;;;;;13.27;8.57;;;;;;;13.58;61.39;102902.81;5017946;28;20055;-67
2022/04/29 10:57:41;;;;;;;12.27;7.28;;;;;;;13.01;62.46;102903.41;5016002;28;20490;-67
2022/04/29 11:00:12;;;;;;;14.15;7.43;;;;;;;13.15;61.40;102898.34;5024648;28;20041;-67
2022/04/29 11:02:41;;;;;;;21.98;8.18;;;;;;;13.20;62.91;102901.69;4996509;28;20048;-67
2022/04/29 11:05:08;;;;;;;17.77;7.38;;;;;;;13.10;62.37;102897.66;5026677;28;20345;-69
2022/04/29 11:07:45;;;;;;;17.67;7.05;;;;;;;13.53;60.36;102883.38;4995961;28;20057;-67
2022/04/29 11:10:22;;;;;;;13.52;6.90;;;;;;;13.78;59.30;102883.16;4996471;28;20938;-67
2022/04/29 11:13:05;;;;;;;11.93;6.88;;;;;;;13.33;60.78;102876.16;4977286;28;20041;-66
2022/04/29 11:15:50;;;;;;;13.32;6.90;;;;;;;14.28;58.49;102880.00;5012307;28;20090;-68
2022/04/29 11:18:28;;;;;;;14.18;7.47;;;;;;;13.91;60.14;102870.97;5011548;28;20038;-67
2022/04/29 11:20:59;;;;;;;13.63;7.32;;;;;;;13.77;60.27;102872.53;5033306;28;20037;-67
2022/04/29 11:26:18;;;;;;;15.98;7.68;;;;;;;13.68;60.43;102882.69;5016413;28;20041;-68
2022/04/29 11:28:53;;;;;;;14.93;7.57;;;;;;;13.55;62.75;102878.78;5030673;28;20033;-67
2022/04/29 11:31:35;;;;;;;16.02;7.68;;;;;;;13.70;59.95;102874.56;5031549;28;20083;-66
2022/04/29 11:34:08;;;;;;;13.25;7.63;;;;;;;13.08;61.34;102870.94;5012779;28;20029;-66
2022/04/29 11:36:35;;;;;;;13.82;7.70;;;;;;;13.33;59.93;102878.84;5027158;28;20152;-66
2022/04/29 11:39:03;;;;;;;11.45;7.15;;;;;;;13.37;60.22;102880.47;5030983;28;20553;-65
2022/04/29 11:41:29;;;;;;;14.18;6.75;;;;;;;13.60;58.79;102874.09;5031895;28;20788;-66
2022/04/29 11:43:55;;;;;;;10.48;6.35;;;;;;;14.14;57.07;102879.78;5032574;28;20043;-65
2022/04/29 11:46:21;;;;;;;10.93;6.68;;;;;;;13.99;56.50;102881.34;5012537;28;20075;-66
2022/04/29 11:48:59;;;;;;;10.02;6.32;;;;;;;13.22;58.63;102881.13;5013421;28;20933;-65
2022/04/29 11:51:29;;;;;;;12.02;6.18;;;;;;;13.42;57.91;102886.50;5031685;28;20041;-65
2022/04/29 11:53:56;;;;;;;13.52;7.65;;;;;;;13.43;59.71;102879.34;5030017;28;20215;-65
2022/04/29 11:56:30;;;;;;;15.15;7.32;;;;;;;13.62;58.18;102874.94;5020138;28;20037;-65
2022/04/29 11:58:55;;;;;;;11.30;6.38;;;;;;;13.60;58.68;102873.25;5019208;28;20064;-66
2022/04/29 12:01:21;;;;;;;13.02;5.90;;;;;;;13.57;57.27;102873.38;5010506;28;20109;-66
2022/04/29 12:03:49;;;;;;;10.15;5.97;;;;;;;13.37;57.94;102868.88;5027315;28;20999;-66
2022/04/29 12:06:16;;;;;;;13.63;7.03;;;;;;;14.11;57.31;102866.50;5014583;28;20045;-66